Daihatsumaru — JD2764 — position and weather

sailwx.info

Track history (hours):
 
Tides and Currents Weather Stations Pressure Air Temp Water Temp Dewpoint Dewpoint Depression Visibility Wind Speed Wind Dir Waves Ship Positions

Daihatsumaru

Last reported at 2017-Jan-17 04:14 UTC. Time now 2017-Jan-18 05:59 UTC.
Position N 34°37' E 134°58'.

Length 106 m; draft 4.5 m.

Type: Cargo ship. MMSI: 431000701.

Date/timePositionNaut miles runAvg speedWind from/ knotsBaromVisibWave heightAir tempDewpointWater temp
2017-Jan-17 04:14N 34°37' E 134°58'1015.5
2017-Jan-17 03:34N 34°36' E 135°11'1211.7
2017-Jan-17 02:33N 34°41' E 135°23'0 0.0
2017-Jan-17 01:33N 34°41' E 135°23'0 0.0
2017-Jan-17 00:33N 34°41' E 135°23'0 0.0
2017-Jan-16 23:33N 34°41' E 135°23'2 2.3
2017-Jan-16 22:33N 34°40' E 135°21'0 0.1
2017-Jan-16 21:33N 34°40' E 135°21'0 0.0
2017-Jan-16 20:33N 34°40' E 135°21'0 0.0
2017-Jan-16 19:33N 34°40' E 135°21'10 9.6
2017-Jan-16 18:34N 34°35' E 135°11'1715.2
2017-Jan-16 17:27N 34°34' E 134°51'  
2017-Jan-14 04:33N 34°37' E 135°03'1211.9
2017-Jan-14 03:33N 34°37' E 135°17'6 1.6
2017-Jan-13 23:30N 34°41' E 135°23'2 2.6
2017-Jan-13 22:33N 34°40' E 135°21'0 0.1
2017-Jan-13 21:33N 34°40' E 135°21'0 0.0
2017-Jan-13 20:33N 34°40' E 135°21'1 0.8
2017-Jan-13 19:33N 34°39' E 135°20'1414.0
2017-Jan-13 18:33N 34°35' E 135°04'3 0.1
2017-Jan-12 04:20N 34°37' E 135°02'1012.3
2017-Jan-12 03:33N 34°36' E 135°13'10 9.8
2017-Jan-12 02:33N 34°41' E 135°23'0 0.0
2017-Jan-12 01:33N 34°41' E 135°23'0 0.0
2017-Jan-12 00:33N 34°41' E 135°23'0 0.0
2017-Jan-11 23:33N 34°41' E 135°23'3 2.6
2017-Jan-11 22:33N 34°39' E 135°21'0 0.1
2017-Jan-11 21:33N 34°39' E 135°21'0 0.0
2017-Jan-11 20:33N 34°39' E 135°21'0 0.0
2017-Jan-11 19:33N 34°39' E 135°21'5 5.1
2017-Jan-11 18:33N 34°36' E 135°16'1615.8
2017-Jan-11 17:33N 34°36' E 134°57'6 0.1
2017-Jan-10 03:34N 34°36' E 135°04'1313.4
2017-Jan-10 02:33N 34°39' E 135°20'4 3.6
2017-Jan-10 01:33N 34°41' E 135°23'0 0.0
2017-Jan-10 00:33N 34°41' E 135°23'0 0.0
2017-Jan-09 23:33N 34°41' E 135°23'0 0.0
2017-Jan-09 22:32N 34°41' E 135°23'0 0.0
2017-Jan-09 21:33N 34°41' E 135°23'0 0.0
2017-Jan-09 20:33N 34°41' E 135°23'0 0.0
2017-Jan-09 19:33N 34°41' E 135°23'0 0.0
2017-Jan-09 18:33N 34°41' E 135°23'0 0.0
2017-Jan-09 17:33N 34°41' E 135°23'0 0.0
2017-Jan-09 16:33N 34°41' E 135°23'0 0.0
2017-Jan-09 15:33N 34°41' E 135°23'0 0.0
2017-Jan-09 14:33N 34°41' E 135°23'0 0.0
2017-Jan-09 13:33N 34°41' E 135°23'0 0.0
2017-Jan-09 12:33N 34°41' E 135°23'0 0.0
2017-Jan-09 11:33N 34°41' E 135°23'0 0.0
2017-Jan-09 10:33N 34°41' E 135°23'0 0.0
2017-Jan-09 09:33N 34°41' E 135°23'0 0.0
2017-Jan-09 08:33N 34°41' E 135°23'0 0.0
2017-Jan-09 07:33N 34°41' E 135°23'0 0.0
2017-Jan-09 06:33N 34°41' E 135°23'0 0.0
2017-Jan-09 05:33N 34°41' E 135°23'0 0.0
2017-Jan-09 04:33N 34°41' E 135°23'0 0.0
2017-Jan-09 03:33N 34°41' E 135°23'0 0.0
2017-Jan-09 02:33N 34°41' E 135°23'0 0.0
2017-Jan-09 01:33N 34°41' E 135°23'0 0.0
2017-Jan-09 00:33N 34°41' E 135°23'0 0.0
2017-Jan-08 23:33N 34°41' E 135°23'0 0.0
2017-Jan-08 22:33N 34°41' E 135°23'0 0.0
2017-Jan-08 21:33N 34°41' E 135°23'0 0.0
2017-Jan-08 20:33N 34°41' E 135°23'0 0.0
2017-Jan-08 19:33N 34°41' E 135°23'0 0.0
2017-Jan-08 18:33N 34°41' E 135°23'0 0.0
2017-Jan-08 17:33N 34°41' E 135°23'0 0.0
2017-Jan-08 16:33N 34°41' E 135°23'0 0.0
2017-Jan-08 15:33N 34°41' E 135°23'0 0.0
2017-Jan-08 14:33N 34°41' E 135°23'0 0.0
2017-Jan-08 13:33N 34°41' E 135°23'0 0.0
2017-Jan-08 12:33N 34°41' E 135°23'0 0.0
2017-Jan-08 11:33N 34°41' E 135°23'0 0.0
2017-Jan-08 10:33N 34°41' E 135°23'0 0.0
2017-Jan-08 09:33N 34°41' E 135°23'0 0.0
2017-Jan-08 08:33N 34°41' E 135°23'0 0.0
2017-Jan-08 07:33N 34°41' E 135°23'0 0.0
2017-Jan-08 06:33N 34°41' E 135°23'0 0.0
2017-Jan-08 05:33N 34°41' E 135°23'0 0.0
2017-Jan-08 04:33N 34°41' E 135°23'0 0.0
2017-Jan-08 03:32N 34°41' E 135°23'0 0.0
2017-Jan-08 02:33N 34°41' E 135°23'0 0.0
2017-Jan-08 01:33N 34°41' E 135°23'0 0.0
2017-Jan-08 00:34N 34°41' E 135°23'0 0.0
2017-Jan-07 23:33N 34°41' E 135°23'0 0.0
2017-Jan-07 22:33N 34°41' E 135°23'3 2.6
2017-Jan-07 21:33N 34°40' E 135°21'0 0.0
2017-Jan-07 20:33N 34°40' E 135°21'0 0.0
2017-Jan-07 19:33N 34°40' E 135°21'0 0.0
2017-Jan-07 18:33N 34°40' E 135°21'0 0.0
2017-Jan-07 17:33N 34°40' E 135°21'0 0.0
2017-Jan-07 16:33N 34°40' E 135°21'0 0.0
2017-Jan-07 15:33N 34°40' E 135°21'0 0.0
2017-Jan-07 14:33N 34°40' E 135°21'0 0.0
2017-Jan-07 13:33N 34°40' E 135°21'0 0.0
2017-Jan-07 12:33N 34°40' E 135°21'0 0.0
2017-Jan-07 11:33N 34°40' E 135°21'1 0.9
2017-Jan-07 10:33N 34°39' E 135°20'1313.6
2017-Jan-07 09:33N 34°35' E 135°04'  
Track history (hours):
 
Tides and Currents Weather Stations Pressure Air Temp Water Temp Dewpoint Dewpoint Depression Visibility Wind Speed Wind Dir Waves Ship Positions

Daihatsumaru

Last reported at 2017-Jan-17 04:14 UTC. Time now 2017-Jan-18 05:59 UTC.
Position N 34°37' E 134°58'.

Length 106 m; draft 4.5 m.

Type: Cargo ship. MMSI: 431000701.

Date/timePositionNaut miles runAvg speedWind from/ knotsBaromVisibWave heightAir tempDewpointWater temp
2017-Jan-17 04:14N 34°37' E 134°58'1015.5
2017-Jan-17 03:34N 34°36' E 135°11'1211.7
2017-Jan-17 02:33N 34°41' E 135°23'0 0.0
2017-Jan-17 01:33N 34°41' E 135°23'0 0.0
2017-Jan-17 00:33N 34°41' E 135°23'0 0.0
2017-Jan-16 23:33N 34°41' E 135°23'2 2.3
2017-Jan-16 22:33N 34°40' E 135°21'0 0.1
2017-Jan-16 21:33N 34°40' E 135°21'0 0.0
2017-Jan-16 20:33N 34°40' E 135°21'0 0.0
2017-Jan-16 19:33N 34°40' E 135°21'10 9.6
2017-Jan-16 18:34N 34°35' E 135°11'1715.2
2017-Jan-16 17:27N 34°34' E 134°51'  
2017-Jan-14 04:33N 34°37' E 135°03'1211.9
2017-Jan-14 03:33N 34°37' E 135°17'6 1.6
2017-Jan-13 23:30N 34°41' E 135°23'2 2.6
2017-Jan-13 22:33N 34°40' E 135°21'0 0.1
2017-Jan-13 21:33N 34°40' E 135°21'0 0.0
2017-Jan-13 20:33N 34°40' E 135°21'1 0.8
2017-Jan-13 19:33N 34°39' E 135°20'1414.0
2017-Jan-13 18:33N 34°35' E 135°04'3 0.1
2017-Jan-12 04:20N 34°37' E 135°02'1012.3
2017-Jan-12 03:33N 34°36' E 135°13'10 9.8
2017-Jan-12 02:33N 34°41' E 135°23'0 0.0
2017-Jan-12 01:33N 34°41' E 135°23'0 0.0
2017-Jan-12 00:33N 34°41' E 135°23'0 0.0
2017-Jan-11 23:33N 34°41' E 135°23'3 2.6
2017-Jan-11 22:33N 34°39' E 135°21'0 0.1
2017-Jan-11 21:33N 34°39' E 135°21'0 0.0
2017-Jan-11 20:33N 34°39' E 135°21'0 0.0
2017-Jan-11 19:33N 34°39' E 135°21'5 5.1
2017-Jan-11 18:33N 34°36' E 135°16'1615.8
2017-Jan-11 17:33N 34°36' E 134°57'6 0.1
2017-Jan-10 03:34N 34°36' E 135°04'1313.4
2017-Jan-10 02:33N 34°39' E 135°20'4 3.6
2017-Jan-10 01:33N 34°41' E 135°23'0 0.0
2017-Jan-10 00:33N 34°41' E 135°23'0 0.0
2017-Jan-09 23:33N 34°41' E 135°23'0 0.0
2017-Jan-09 22:32N 34°41' E 135°23'0 0.0
2017-Jan-09 21:33N 34°41' E 135°23'0 0.0
2017-Jan-09 20:33N 34°41' E 135°23'0 0.0
2017-Jan-09 19:33N 34°41' E 135°23'0 0.0
2017-Jan-09 18:33N 34°41' E 135°23'0 0.0
2017-Jan-09 17:33N 34°41' E 135°23'0 0.0
2017-Jan-09 16:33N 34°41' E 135°23'0 0.0
2017-Jan-09 15:33N 34°41' E 135°23'0 0.0
2017-Jan-09 14:33N 34°41' E 135°23'0 0.0
2017-Jan-09 13:33N 34°41' E 135°23'0 0.0
2017-Jan-09 12:33N 34°41' E 135°23'0 0.0
2017-Jan-09 11:33N 34°41' E 135°23'0 0.0
2017-Jan-09 10:33N 34°41' E 135°23'0 0.0
2017-Jan-09 09:33N 34°41' E 135°23'0 0.0
2017-Jan-09 08:33N 34°41' E 135°23'0 0.0
2017-Jan-09 07:33N 34°41' E 135°23'0 0.0
2017-Jan-09 06:33N 34°41' E 135°23'0 0.0
2017-Jan-09 05:33N 34°41' E 135°23'0 0.0
2017-Jan-09 04:33N 34°41' E 135°23'0 0.0
2017-Jan-09 03:33N 34°41' E 135°23'0 0.0
2017-Jan-09 02:33N 34°41' E 135°23'0 0.0
2017-Jan-09 01:33N 34°41' E 135°23'0 0.0
2017-Jan-09 00:33N 34°41' E 135°23'0 0.0
2017-Jan-08 23:33N 34°41' E 135°23'0 0.0
2017-Jan-08 22:33N 34°41' E 135°23'0 0.0
2017-Jan-08 21:33N 34°41' E 135°23'0 0.0
2017-Jan-08 20:33N 34°41' E 135°23'0 0.0
2017-Jan-08 19:33N 34°41' E 135°23'0 0.0
2017-Jan-08 18:33N 34°41' E 135°23'0 0.0
2017-Jan-08 17:33N 34°41' E 135°23'0 0.0
2017-Jan-08 16:33N 34°41' E 135°23'0 0.0
2017-Jan-08 15:33N 34°41' E 135°23'0 0.0
2017-Jan-08 14:33N 34°41' E 135°23'0 0.0
2017-Jan-08 13:33N 34°41' E 135°23'0 0.0
2017-Jan-08 12:33N 34°41' E 135°23'0 0.0
2017-Jan-08 11:33N 34°41' E 135°23'0 0.0
2017-Jan-08 10:33N 34°41' E 135°23'0 0.0
2017-Jan-08 09:33N 34°41' E 135°23'0 0.0
2017-Jan-08 08:33N 34°41' E 135°23'0 0.0
2017-Jan-08 07:33N 34°41' E 135°23'0 0.0
2017-Jan-08 06:33N 34°41' E 135°23'0 0.0
2017-Jan-08 05:33N 34°41' E 135°23'0 0.0
2017-Jan-08 04:33N 34°41' E 135°23'0 0.0
2017-Jan-08 03:32N 34°41' E 135°23'0 0.0
2017-Jan-08 02:33N 34°41' E 135°23'0 0.0
2017-Jan-08 01:33N 34°41' E 135°23'0 0.0
2017-Jan-08 00:34N 34°41' E 135°23'0 0.0
2017-Jan-07 23:33N 34°41' E 135°23'0 0.0
2017-Jan-07 22:33N 34°41' E 135°23'3 2.6
2017-Jan-07 21:33N 34°40' E 135°21'0 0.0
2017-Jan-07 20:33N 34°40' E 135°21'0 0.0
2017-Jan-07 19:33N 34°40' E 135°21'0 0.0
2017-Jan-07 18:33N 34°40' E 135°21'0 0.0
2017-Jan-07 17:33N 34°40' E 135°21'0 0.0
2017-Jan-07 16:33N 34°40' E 135°21'0 0.0
2017-Jan-07 15:33N 34°40' E 135°21'0 0.0
2017-Jan-07 14:33N 34°40' E 135°21'0 0.0
2017-Jan-07 13:33N 34°40' E 135°21'0 0.0
2017-Jan-07 12:33N 34°40' E 135°21'0 0.0
2017-Jan-07 11:33N 34°40' E 135°21'1 0.9
2017-Jan-07 10:33N 34°39' E 135°20'1313.6
2017-Jan-07 09:33N 34°35' E 135°04'  

Dump ship's entire track history